Alexander, Lorie
CanadaWomanBorn 19592000 – 2026Runner id 14561
Events
213
211 race dates
Best pace
10.729
km/h · 2022
Best finish
10th
of 73 · 2012
Distance raced
16,926
km · splits not double-counted
Pace over time
km/h · higher is faster
Pace over time: 212 races and 1 split from 2000 to 2026, ranging from 2.28 to 14.43 kilometres per hour, where higher is faster. A second, age-graded series is drawn above it; the gap between the two is the age credit.
- Actual pace
- Age-graded pace
- Split of a race already plotted
Results
| Date | Event | Distance | Result | Pace km/h | Placing |
|---|---|---|---|---|---|
| 2000-06-10 | Larch Hills Trail RaceCanada | 50km | 6:10:35 h | 8.095 | 32/35 |
| 2006-05-06 | 50mi | 9:22:12 h | 8.588 | 6/7 | |
| 2006-06-03 | 50km | 9:43:00 h | 5.146 | 15/15 | |
| 2006-06-24 | 50mi | 10:25:41 h | 7.716 | 3/8 | |
| 2006-08-05 | Canadian Death RaceCanada | 125km | 22:20:49 h | 5.594 | 50/80 |
| 2006-09-03 | Walk in the Park 54KCanada | 54km | 8:49:32 h | 6.119 | 9/14 |
| 2006-09-09 | 100km | 17:42:00 h | 5.650 | 9/29 | |
| 2007-03-17 | 50km | 7:58:37 h | 6.268 | 96/147 | |
| 2007-04-07 | Diez Vista 50K Trail RunCanada | 50km | 7:16:07 h | 6.879 | 77/114 |
| 2007-04-22 | 50mi | 9:08:33 h | 8.801 | 31/54 | |
| 2007-05-05 | 50km | 5:25:20 h | 9.221 | 25/31 | |
| 2007-05-26 | 100km | 12:10:36 h | 8.212 | 20/48 | |
| 2007-06-02 | 50km | 6:22:22 h | 7.846 | 16/29 | |
| 2007-06-23 | 50km | 10:03:18 h | 4.973 | 28/35 | |
| 2007-07-21 | 100mi | 24:36:17 h | 6.541 | 71/142 | |
| 2007-08-04 | 125km | 21:59:13 h | 5.685 | 67/98 | |
| 2007-08-25 | 50mi | 9:38:00 h | 8.353 | 9/42 | |
| 2007-09-02 | Walk in the Park 54KCanada | 54km | 7:54:26 h | 6.829 | 18/22 |
| 2007-09-14 | 100mi | 32:19:00 h | 4.980 | 23/30 | |
| 2007-10-06 | Baker Lake 50K Ultra Trail RunUnited States | 50km | 7:17:24 h | 6.859 | 57/77 |
| 2007-10-13 | 50mi | 9:46:52 h | 8.227 | 49/85 | |
| 2008-02-16 | 50km | 7:36:55 h | 6.566 | 45/59 | |
| 2008-02-24 | Cedar River Yours TrulyUnited States | 50km | 5:48:00 h | 8.621 | 10/15 |
| 2008-03-01 | 50km | 6:35:12 h | 7.591 | 27/31 | |
| 2008-04-13 | 50mi | 8:48:53 h | 9.129 | 29/50 | |
| 2008-04-20 | Spokane River Run 50KUnited States | 50km | 5:53:01 h | 8.498 | 25/44 |
| 2008-04-26 | 55km | 7:32:35 h | 7.291 | 35/46 | |
| 2008-05-03 | 50km | 5:03:56 h | 9.871 | 17/25 | |
| 2008-05-10 | 50mi | 12:48:10 h | 6.285 | 31/35 | |
| 2008-05-17 | Watershed Preserve 12 Hr Trail RaceUnited States | 12h | 51.901 km | 4.325 | 47/53 |
| 2008-06-20 | 50mi | 12:43:42 h | 6.322 | 60/106 | |
| 2008-08-02 | 50mi | 13:34:10 h | 5.930 | 17/28 | |
| 2008-08-09 | 50mi | 10:58:38 h | 7.330 | 40/57 | |
| 2008-08-23 | 100mi | 29:44:30 h | 5.411 | 49/77 | |
| 2008-08-31 | Walk in the Park 54KCanada | 54km | 8:10:37 h | 6.604 | 17/21 |
| 2008-09-06 | 50km | 5:53:48 h | 8.479 | 17/36 | |
| 2008-09-13 | Cle Elum Ridge 50kUnited States | 50km | 7:08:00 h | 7.009 | 49/80 |
| 2008-10-11 | 50mi | 10:09:37 h | 7.920 | 80/155 | |
| 2008-10-19 | 50km | 6:14:00 h | 8.021 | 7/19 | |
| 2008-10-20 | Baker Lake 50K Ultra Trail RunUnited States | 50km | 6:24:39 h | 7.799 | 35/86 |
| 2008-11-01 | 100mi | 30:56:54 h | 5.200 | 16/25 | |
| 2008-11-15 | 100mi | 24:56:23 h | 6.453 | 34/72 | |
| 2009-03-21 | 24h | 80.467 km | 3.353 | 31/49 | |
| 2009-04-18 | Diez Vista 50K Trail RunCanada | 50km | 7:13:55 h | 6.914 | 74/116 |
| 2009-04-25 | 50mi | 11:09:57 h | 7.207 | 32/43 | |
| 2009-05-02 | 50mi | 8:55:08 h | 9.022 | 6/7 | |
| 2009-06-06 | 50mi | 9:31:19 h | 8.451 | 6/16 | |
| 2009-06-20 | The 20th Century 100K Trail RunUnited States | 100km | 11:47:02 h | 8.486 | 6/14 |
| 2009-07-25 | 50mi | 11:07:48 h | 7.230 | 108/166 | |
| 2009-08-07 | 100mi | 23:59:39 h | 6.707 | 9/22 | |
| 2009-08-22 | 100mi | 21:49:08 h | 7.376 | 15/72 | |
| 2009-09-06 | Walk in the Park 54KCanada | 54km | 7:07:46 h | 7.574 | 9/18 |
| 2009-09-11 | 100mi | 28:35:03 h | 5.630 | 7/31 | |
| 2009-09-19 | 50km | 8:36:36 h | 5.807 | 66/70 | |
| 2009-10-03 | Baker Lake 50K Ultra Trail RunUnited States | 50km | 6:17:00 h | 7.958 | 22/65 |
| 2009-10-31 | Javelina Jundred 100 km Endurance RunUnited States | 100km | 13:15:23 h | 7.544 | 15/102 |
| 2009-12-19 | Pigtails Run 50KUnited States | 50km | 5:37:39 h | 8.885 | 26/32 |
| 2010-01-23 | Pigtails Run 50KUnited States | 50km | 5:18:14 h | 9.427 | 28/80 |
| 2010-01-24 | Cedar River Yours TrulyUnited States | 50km | 5:32:34 h | 9.021 | 8/15 |
| 2010-02-06 | 100mi | 23:13:39 h | 6.929 | 70/216 | |
| 2010-02-10 | Woolley Trail Runs 50kUnited States | 50km | 5:29:00 h | 9.119 | 13/18 |
| 2010-03-07 | Lord Hill Trail RunUnited States | 50km | 6:56:05 h | 7.210 | 16/21 |
| 2010-03-13 | 50km | 6:59:27 h | 7.152 | 48/54 | |
| 2010-03-20 | 24h | 80.467 km | 3.353 | 40/73 | |
| 2010-04-09 | 50mi | 10:55:00 h | 7.371 | 12/26 | |
| 2010-04-18 | Spokane River Run 50KUnited States | 50km | 5:41:39 h | 8.781 | 39/70 |
| 2010-04-25 | 50mi | 10:30:45 h | 7.654 | 57/88 | |
| 2010-05-01 | 100km | 13:09:20 h | 7.601 | 147/268 | |
| 2010-05-15 | 100km | 15:34:09 h | 6.423 | 24/45 | |
| 2010-06-12 | 28.8mi | 5:02:00 h | 9.208 | 29/61 | |
| 2010-06-20 | 50mi | 9:16:45 h | 8.672 | 12/27 | |
| 2010-06-26 | 50mi | 11:35:15 h | 6.944 | 14/30 | |
| 2010-07-12 | 135mi | 44:09:23 h | 4.920 | 52/73 | |
| 2010-08-14 | 50mi | 13:00:46 h | 6.184 | 36/59 | |
| 2010-08-21 | Squak Mountain 50 Km Trail RunUnited States | 50km | 6:19:56 h | 7.896 | 3/9 |
| 2010-09-05 | Walk in the Park 54KCanada | 54km | 7:01:30 h | 7.687 | 9/25 |
| 2010-09-18 | 50km | 7:20:11 h | 6.815 | 55/97 | |
| 2010-10-02 | Baker Lake 50K Ultra Trail RunUnited States | 50km | 8:08:00 h | 6.148 | 104/115 |
| 2010-10-16 | 50km | 6:00:19 h | 8.326 | 52/97 | |
| 2010-10-30 | 12h | 71.438 km | 5.953 | 7/25 | |
| 2010-11-27 | Ghost of Seattle MarathonUnited States | 50km | 5:04:34 h | 9.850 | 10/16 |
| 2011-01-08 | 50mi | 8:41:56 h | 9.250 | 14/38 | |
| 2011-02-05 | 50km | 7:53:27 h | 6.336 | 83/129 | |
| 2011-02-19 | 50km | 5:45:00 h | 8.696 | 22/25 | |
| 2011-03-06 | Lord Hill Trail RunUnited States | 50km | 6:54:30 h | 7.238 | 18/25 |
| 2011-03-11 | 50km | 7:20:58 h | 6.803 | 84/125 | |
| 2011-03-26 | 50km | 5:36:46 h | 8.908 | 6/17 | |
| 2011-04-09 | 50km | 7:56:27 h | 6.297 | 76/99 | |
| 2011-04-17 | Spokane River Run 50KUnited States | 50km | 5:48:45 h | 8.602 | 35/62 |
| 2011-04-30 | 50mi | 10:45:30 h | 7.480 | 58/82 | |
| 2011-05-07 | 100km | 13:30:32 h | 7.403 | 174/287 | |
| 2011-05-21 | 100km | 15:01:16 h | 6.657 | 27/40 | |
| 2011-06-25 | 50mi | 16:05:00 h | 5.003 | 9/13 | |
| 2011-07-11 | 135mi | 37:43:21 h | 5.759 | 38/81 | |
| 2011-08-13 | 50mi | 12:55:03 h | 6.229 | 39/61 | |
| 2011-08-20 | Summit Ridge 50 Km Trail RunUnited States | 50km | 6:30:27 h | 7.683 | 7/18 |
| 2011-09-04 | 54km | 7:36:57 h | 7.090 | 8/15 | |
| 2011-09-17 | 50km | 8:00:02 h | 6.250 | 43/58 | |
| 2011-10-01 | Echo Valley 50 Mile Trail RunUnited States | 50mi | 9:45:03 h | 8.252 | 6/10 |
| 2011-10-23 | Fort Steilacoom Trail Run 50 KmUnited States | 50km | 5:26:10 h | 9.198 | 14/36 |
| 2012-01-07 | 50mi | 8:28:04 h | 9.503 | 15/44 | |
| 2012-04-28 | 50mi | 10:59:33 h | 7.320 | 55/83 | |
| 2012-05-26 | 100km | 13:01:00 h | 7.682 | 24/32 | |
| 2012-06-16 | 100km | 12:51:36 h | 7.776 | 7/7 | |
| 2012-08-04 | 50mi | 15:45:29 h | 5.106 | 38/47 | |
| 2012-08-18 | 50mi | 12:55:28 h | 6.226 | 46/84 | |
| 2012-08-25 | 100mi | 20:29:24 h | 7.854 | 10/73 | |
| 2012-09-02 | 54km | 7:49:08 h | 6.906 | 13/16 | |
| 2012-09-28 | 24h | 172.000 km | 7.167 | 3/13 | |
| 2012-10-19 | 100mi | 22:01:14 h | 7.308 | 4/14 | |
| 2012-12-08 | 50mi | 11:34:34 h | 6.951 | 21/41 | |
| 2013-01-12 | 50mi | 9:09:27 h | 8.787 | 14/28 | |
| 2013-05-11 | 24h | 168.740 km | 7.031 | 171/242 | |
| 2013-05-11 | 24h | 168.740 km | 7.031 | 189/296 | |
| 2013-05-11 | 24uur van Steenbergen - 12h SplitNetherlandsIAU SilverSplit of the race above; not counted again in the distance totalNational Team Canada | 12h | 97.193 km | 8.099 | 238/295 |
| 2013-07-06 | 50km | 7:54:09 h | 6.327 | 8/25 | |
| 2013-10-12 | 100km | 15:26:13 h | 6.478 | 56/89 | |
| 2013-12-07 | 50mi | 10:42:58 h | 7.509 | 15/29 | |
| 2014-01-11 | 50km | 6:55:48 h | 7.215 | 45/56 | |
| 2014-03-22 | 51.4mi | 11:08:00 h | 7.430 | 31/56 | |
| 2014-04-26 | Leona Divide 50 Mile RunUnited States | 50mi | 11:18:10 h | 7.119 | 117/183 |
| 2014-05-04 | 130km | 22:31:03 h | 5.773 | 23/47 | |
| 2014-05-17 | 50mi | 12:09:02 h | 6.623 | 46/66 | |
| 2014-05-24 | Blackfoot Ultra 100 KmCanada | 100km | 12:44:00 h | 7.853 | 22/37 |
| 2014-06-01 | 50km | 5:18:06 h | 9.431 | 232/410 | |
| 2014-07-21 | 135mi | 36:32:37 h | 5.945 | 35/83 | |
| 2014-08-16 | 60km | 10:53:53 h | 5.506 | 4/20 | |
| 2014-08-31 | 54km | 7:45:05 h | 6.966 | 6/18 | |
| 2014-10-17 | 100mi | 22:21:35 h | 7.198 | 6/25 | |
| 2014-12-06 | 50mi | 11:32:06 h | 6.976 | 20/29 | |
| 2015-01-10 | 50km | 6:35:40 h | 7.582 | 32/50 | |
| 2015-01-24 | 52mi | 10:37:52 h | 7.872 | 6/32 | |
| 2015-04-25 | 55km | 8:17:04 h | 6.639 | 11/17 | |
| 2015-05-03 | 130km | 21:18:20 h | 6.102 | 13/44 | |
| 2015-05-16 | Silver State 50 MileUnited States | 50mi | 13:14:36 h | 6.076 | 77/82 |
| 2015-05-30 | Blackfoot Ultra 100 KmCanada | 100km | 12:07:06 h | 8.252 | 24/44 |
| 2015-05-31 | 50km | 5:58:36 h | 8.366 | 144/168 | |
| 2015-06-27 | 50km | 7:14:20 h | 6.907 | 35/49 | |
| 2015-07-05 | 50mi | 9:47:03 h | 8.224 | 5/7 | |
| 2015-07-28 | 135mi | 37:00:05 h | 5.872 | 34/79 | |
| 2015-09-06 | 54km | 7:54:56 h | 6.822 | 8/16 | |
| 2015-09-23 | 50mi | 13:01:43 h | 6.176 | 24/29 | |
| 2015-12-05 | 50mi | 12:00:04 h | 6.705 | 18/33 | |
| 2016-04-16 | 88km | 13:07:47 h | 6.702 | 22/33 | |
| 2016-05-01 | 130km | 18:20:00 h | 7.091 | 11/79 | |
| 2016-07-18 | 135mi | 37:35:29 h | 5.780 | 42/84 | |
| 2016-08-13 | 60km | 10:53:00 h | 5.513 | 28/51 | |
| 2016-09-04 | 51km | 6:52:54 h | 7.411 | 12/24 | |
| 2016-09-09 | 100km | 14:46:20 h | 6.769 | 26/113 | |
| 2016-09-16 | 85km | 15:14:55 h | 5.574 | 50/62 | |
| 2016-09-17 | 60km | 10:35:20 h | 5.666 | 65/92 | |
| 2016-11-19 | 50mi | 10:45:46 h | 7.476 | 54/86 | |
| 2016-12-03 | 50mi | 11:12:37 h | 7.178 | 21/45 | |
| 2016-12-28 | 24h | 141.917 km | 5.913 | 21/139 | |
| 2017-02-11 | 50mi | 10:33:59 h | 7.615 | 45/158 | |
| 2017-04-23 | 50km | 6:34:05 h | 7.613 | 46/53 | |
| 2017-05-06 | 50km | 6:46:06 h | 7.387 | 36/76 | |
| 2017-05-28 | 50km | 5:20:42 h | 9.355 | 68/147 | |
| 2017-07-08 | 56km | 9:18:05 h | 6.021 | 44/66 | |
| 2017-07-29 | 50km | 11:40:26 h | 4.283 | 98/108 | |
| 2017-08-12 | 60km | 11:38:00 h | 5.158 | 35/51 | |
| 2017-09-22 | 85km | 15:18:37 h | 5.552 | 94/123 | |
| 2017-09-23 | 60km | 11:02:57 h | 5.430 | 143/189 | |
| 2017-11-18 | 50mi | 10:41:59 h | 7.520 | 76/117 | |
| 2017-12-02 | 50mi | 12:04:36 h | 6.663 | 31/70 | |
| 2018-03-03 | 50mi | 13:21:10 h | 6.026 | 29/40 | |
| 2018-04-22 | 50km | 6:00:24 h | 8.324 | 46/57 | |
| 2018-05-05 | 50mi | 13:18:13 h | 6.049 | 20/31 | |
| 2018-05-26 | Blackfoot Ultra 100 KmCanada | 100km | 12:37:20 h | 7.923 | 22/33 |
| 2018-06-02 | 50mi | 12:24:58 h | 6.481 | 49/74 | |
| 2018-07-28 | 50km | 11:35:01 h | 4.316 | 112/136 | |
| 2018-09-29 | 60km | 8:12:54 h | 7.304 | 51/86 | |
| 2018-11-03 | 41.5mi | 11:08:24 h | 5.995 | 18/27 | |
| 2018-11-17 | 50mi | 11:02:06 h | 7.292 | 119/169 | |
| 2018-12-01 | 50mi | 11:06:28 h | 7.244 | 40/99 | |
| 2018-12-31 | 24h | 125.021 km | 5.209 | 33/173 | |
| 2019-01-12 | 24h | 54.717 km | 2.280 | 31/32 | |
| 2019-01-26 | 50mi | 12:16:05 h | 6.559 | 12/28 | |
| 2019-02-09 | 50km | 6:08:51 h | 8.133 | 43/159 | |
| 2019-02-16 | 100mi | 21:34:03 h | 7.462 | 12/37 | |
| 2019-03-09 | 50km | 7:40:29 h | 6.515 | 53/82 | |
| 2019-04-06 | Hells Hills 50km RaceUnited States | 50km | 7:00:34 h | 7.133 | 16/45 |
| 2019-06-15 | 12h | 55.000 km | 4.583 | 8/10 | |
| 2019-07-06 | 50km | 8:04:01 h | 6.198 | 34/47 | |
| 2019-09-01 | 51km | 7:42:56 h | 6.610 | 16/23 | |
| 2019-09-21 | Snow Mountain Ranch 50 km Trail RaceUnited States | 50km | 6:56:13 h | 7.208 | 19/33 |
| 2019-09-28 | 60km | 8:59:28 h | 6.673 | 62/108 | |
| 2019-10-26 | 100km | 13:30:08 h | 7.406 | 15/103 | |
| 2021-08-14 | 60km | 12:37:31 h | 4.752 | 56/71 | |
| 2021-09-10 | 100km | 18:41:11 h | 5.351 | 70/102 | |
| 2021-10-01 | 24h | 66.111 km | 2.755 | 14/18 | |
| 2022-05-21 | 55km | 10:10:53 h | 5.402 | 17/20 | |
| 2022-06-18 | 12h | 128.747 km | 10.729 | 6/23 | |
| 2022-07-02 | Bob Marshall Trail 50KUnited States | 50km | 6:54:15 h | 7.242 | 14/18 |
| 2022-07-09 | Sinister 7 Ultra 50-KmCanada | 50km | 9:46:47 h | 5.113 | 99/181 |
| 2022-07-23 | 50km | 9:01:55 h | 5.536 | 38/59 | |
| 2022-10-01 | 50km | 7:56:31 h | 6.296 | 100/125 | |
| 2023-10-07 | 50km | 7:50:12 h | 6.380 | 90/123 | |
| 2024-10-05 | 50km | 8:35:24 h | 5.821 | 119/129 | |
| 2024-10-12 | 50km | 8:09:00 h | 6.135 | 17/24 | |
| 2025-04-27 | 50km | 7:23:19 h | 6.767 | 47/55 | |
| 2025-05-24 | 8h | 79.565 km | 9.946 | 2/9 | |
| 2025-08-02 | 50km | 8:50:41 h | 5.653 | 36/62 | |
| 2025-09-06 | 62km | 12:32:40 h | 4.942 | 77/93 | |
| 2025-09-20 | 100km | 14:05:13 h | 7.099 | 16/37 | |
| 2025-10-17 | 50mi | 10:44:33 h | 7.491 | 13/37 | |
| 2026-01-17 | 60km | 8:46:18 h | 6.840 | 23/46 | |
| 2026-02-14 | Tarawera 100 km UltramarathonNew Zealand | 103km | 19:50:45 h | 5.190 | 518/777 |
| 2026-03-28 | 55km | 8:51:13 h | 6.212 | 66/84 | |
| 2026-04-19 | 50km | 7:15:06 h | 6.895 | 84/100 | |
| 2026-05-23 | 12h | 102.193 km | 8.516 | 12/20 | |
| 2026-06-06 | 50km | 8:47:03 h | 5.692 | 56/77 | |
| 2026-08-15 | 50km | 10:06:37 h | 4.945 | 72/82 |